createdAt,value
2022-10-12T00:01:35.343Z,10.40
2022-10-12T00:04:02.472Z,13.47
2022-10-12T00:06:29.405Z,7.50
2022-10-12T00:08:56.285Z,7.87
2022-10-12T00:11:29.022Z,10.70
2022-10-12T00:13:56.416Z,9.50
2022-10-12T00:16:25.972Z,13.63
2022-10-12T00:18:54.270Z,7.37
2022-10-12T00:21:21.375Z,9.13
2022-10-12T00:23:49.001Z,8.53
2022-10-12T00:26:21.129Z,12.17
2022-10-12T00:28:54.022Z,9.03
2022-10-12T00:31:22.125Z,8.93
2022-10-12T00:33:49.680Z,9.17
2022-10-12T00:36:25.632Z,12.73
2022-10-12T00:38:54.346Z,8.03
2022-10-12T00:41:25.033Z,13.93
2022-10-12T00:43:57.976Z,9.13
2022-10-12T00:46:42.295Z,14.80
2022-10-12T00:49:19.757Z,12.83
2022-10-12T00:51:53.667Z,16.73
2022-10-12T00:54:27.271Z,15.73
2022-10-12T00:56:56.654Z,11.33
2022-10-12T00:59:28.507Z,13.63
2022-10-12T01:01:56.209Z,14.53
2022-10-12T01:04:24.224Z,10.57
2022-10-12T01:06:51.905Z,14.00
2022-10-12T01:09:20.764Z,14.93
2022-10-12T01:11:48.150Z,11.30
2022-10-12T01:14:15.397Z,12.80
2022-10-12T01:16:47.904Z,13.07
2022-10-12T01:19:35.925Z,14.13
2022-10-12T01:22:06.264Z,16.80
2022-10-12T01:24:49.408Z,17.10
2022-10-12T01:27:51.220Z,12.93
2022-10-12T01:30:38.128Z,13.33
2022-10-12T01:33:23.315Z,14.13
2022-10-12T01:36:17.816Z,15.47
2022-10-12T01:39:04.672Z,19.37
2022-10-12T01:41:50.444Z,18.90
2022-10-12T01:44:25.593Z,22.17
2022-10-12T01:46:57.488Z,17.70
2022-10-12T01:49:30.634Z,15.87
2022-10-12T01:52:15.673Z,19.40
2022-10-12T01:54:45.505Z,18.13
2022-10-12T01:58:00.484Z,17.90
2022-10-12T02:00:27.370Z,21.67
2022-10-12T02:03:17.415Z,16.17
2022-10-12T02:06:05.310Z,17.57
2022-10-12T02:08:48.636Z,20.93
2022-10-12T02:11:18.373Z,18.03
2022-10-12T02:13:50.943Z,17.07
2022-10-12T02:16:20.930Z,13.80
2022-10-12T02:18:52.019Z,21.37
2022-10-12T02:21:24.580Z,17.53
2022-10-12T02:23:54.345Z,18.00
2022-10-12T02:26:22.124Z,18.97
2022-10-12T02:28:51.046Z,19.57
2022-10-12T02:31:38.066Z,15.60
2022-10-12T02:34:22.678Z,18.13
2022-10-12T02:37:07.533Z,17.20
2022-10-12T02:39:47.747Z,13.23
2022-10-12T02:42:20.213Z,14.27
2022-10-12T02:44:49.921Z,22.70
2022-10-12T02:47:18.177Z,20.43
2022-10-12T02:49:46.852Z,17.23
2022-10-12T02:52:13.744Z,15.37
2022-10-12T02:54:40.745Z,17.00
2022-10-12T02:57:07.605Z,17.63
2022-10-12T02:59:34.620Z,16.47
2022-10-12T03:02:01.494Z,21.40
2022-10-12T03:04:28.425Z,16.37
2022-10-12T03:06:55.333Z,18.90
2022-10-12T03:09:22.295Z,12.37
2022-10-12T03:11:49.188Z,15.57
2022-10-12T03:14:17.483Z,25.30
2022-10-12T03:16:46.589Z,18.37
2022-10-12T03:19:13.643Z,14.67
2022-10-12T03:21:41.179Z,14.30
2022-10-12T03:24:08.043Z,16.67
2022-10-12T03:26:34.880Z,23.67
2022-10-12T03:29:01.758Z,22.03
2022-10-12T03:31:28.746Z,18.83
2022-10-12T03:33:55.603Z,19.47
2022-10-12T03:36:22.512Z,19.57
2022-10-12T03:38:49.374Z,21.47
2022-10-12T03:41:16.217Z,19.83
2022-10-12T03:43:43.115Z,19.23
2022-10-12T03:46:09.981Z,25.60
2022-10-12T03:48:37.038Z,18.87
2022-10-12T03:51:04.128Z,24.00
2022-10-12T03:53:31.619Z,20.40
2022-10-12T03:55:58.747Z,33.50
2022-10-12T03:58:25.685Z,25.07
2022-10-12T04:00:55.887Z,17.23
2022-10-12T04:03:22.818Z,22.90
2022-10-12T04:05:57.132Z,17.10
2022-10-12T04:08:26.860Z,16.20
2022-10-12T04:10:54.329Z,21.80
2022-10-12T04:13:21.308Z,16.20
2022-10-12T04:15:48.188Z,25.30
2022-10-12T04:18:15.129Z,18.13
2022-10-12T04:20:42.035Z,18.20
2022-10-12T04:23:08.949Z,20.27
2022-10-12T04:25:36.794Z,16.20
2022-10-12T04:28:03.683Z,20.70
2022-10-12T04:30:30.730Z,22.03
2022-10-12T04:32:57.584Z,23.87
2022-10-12T04:35:24.481Z,26.83
2022-10-12T04:37:51.331Z,20.90
2022-10-12T04:40:18.286Z,22.07
2022-10-12T04:42:45.174Z,23.30
2022-10-12T04:45:12.026Z,18.30
2022-10-12T04:47:39.392Z,17.50
2022-10-12T04:50:07.093Z,18.70
2022-10-12T04:52:34.113Z,23.70
2022-10-12T04:55:00.953Z,20.30
2022-10-12T04:57:27.877Z,22.30
2022-10-12T04:59:54.742Z,18.57
2022-10-12T05:02:21.628Z,21.57
2022-10-12T05:04:48.571Z,26.57
2022-10-12T05:07:15.594Z,28.13
2022-10-12T05:09:42.451Z,22.03
2022-10-12T05:12:09.486Z,21.03
2022-10-12T05:14:36.419Z,22.70
2022-10-12T05:17:03.453Z,21.33
2022-10-12T05:19:30.400Z,23.53
2022-10-12T05:21:57.296Z,25.57
2022-10-12T05:24:24.210Z,20.20
2022-10-12T05:26:51.093Z,19.83
2022-10-12T05:29:18.018Z,18.03
2022-10-12T05:31:44.854Z,19.77
2022-10-12T05:34:11.762Z,21.83
2022-10-12T05:36:38.609Z,20.10
2022-10-12T05:39:05.457Z,24.00
2022-10-12T05:41:32.347Z,32.03
2022-10-12T05:43:59.209Z,30.70
2022-10-12T05:46:26.084Z,19.73
2022-10-12T05:48:53.956Z,24.20
2022-10-12T05:51:24.110Z,18.40
2022-10-12T05:53:53.479Z,20.67
2022-10-12T05:56:20.512Z,17.33
2022-10-12T05:58:47.417Z,19.70
2022-10-12T06:01:14.763Z,23.80
2022-10-12T06:03:41.657Z,22.87
2022-10-12T06:06:11.699Z,20.37
2022-10-12T06:08:38.573Z,23.80
2022-10-12T06:11:05.856Z,30.40
2022-10-12T06:13:34.103Z,22.37
2022-10-12T06:16:01.083Z,23.33
2022-10-12T06:18:30.296Z,25.10
2022-10-12T06:21:21.359Z,32.57
2022-10-12T06:23:44.960Z,21.33
2022-10-12T06:26:16.429Z,20.80
2022-10-12T06:28:44.482Z,26.80
2022-10-12T06:31:14.239Z,21.50
2022-10-12T06:33:43.187Z,19.60
2022-10-12T06:36:11.163Z,22.67
2022-10-12T06:38:41.268Z,23.13
2022-10-12T06:41:09.185Z,18.93
2022-10-12T06:43:39.228Z,14.33
2022-10-12T06:46:12.489Z,17.33
2022-10-12T06:48:41.525Z,17.43
2022-10-12T06:51:08.462Z,16.83
2022-10-12T06:53:35.726Z,25.27
2022-10-12T06:56:10.093Z,16.30
2022-10-12T06:58:38.680Z,13.33
2022-10-12T07:01:08.587Z,18.77
2022-10-12T07:03:35.516Z,13.13
2022-10-12T07:06:14.648Z,16.73
2022-10-12T07:08:42.206Z,13.57
2022-10-12T07:11:11.901Z,15.07
2022-10-12T07:13:39.513Z,14.43
2022-10-12T07:16:07.291Z,12.53
2022-10-12T07:18:36.570Z,14.17
2022-10-12T07:21:03.576Z,14.40
2022-10-12T07:23:35.031Z,13.97
2022-10-12T07:26:02.946Z,13.43
2022-10-12T07:28:30.258Z,19.53
2022-10-12T07:31:09.676Z,16.37
2022-10-12T07:33:41.248Z,13.73
2022-10-12T07:36:21.343Z,18.00
2022-10-12T07:38:52.788Z,13.97
2022-10-12T07:41:22.793Z,16.43
2022-10-12T07:43:56.693Z,18.83
2022-10-12T07:46:26.030Z,13.13
2022-10-12T07:48:54.188Z,15.17
2022-10-12T07:51:22.219Z,13.03
2022-10-12T07:53:54.224Z,14.50
2022-10-12T07:56:21.220Z,12.70
2022-10-12T07:58:55.309Z,15.30
2022-10-12T08:01:24.602Z,17.30
2022-10-12T08:04:01.251Z,20.07
2022-10-12T08:06:33.595Z,13.47
2022-10-12T08:09:03.060Z,14.50
2022-10-12T08:11:37.331Z,13.57
2022-10-12T08:14:05.384Z,15.77
2022-10-12T08:16:33.507Z,11.63
2022-10-12T08:19:03.484Z,12.87
2022-10-12T08:21:33.451Z,11.30
2022-10-12T08:24:03.495Z,10.90
2022-10-12T08:26:31.493Z,10.27
2022-10-12T08:29:01.859Z,13.75
2022-10-12T08:31:28.849Z,13.63
2022-10-12T08:33:57.572Z,10.52
2022-10-12T08:36:25.649Z,15.27
2022-10-12T08:38:55.259Z,13.80
2022-10-12T08:41:47.218Z,14.73
2022-10-12T08:44:52.238Z,11.70
2022-10-12T08:47:34.880Z,12.43
2022-10-12T08:50:05.227Z,9.67
2022-10-12T08:53:01.137Z,14.60
2022-10-12T08:55:43.836Z,11.70
2022-10-12T08:58:33.992Z,11.10
2022-10-12T09:01:20.063Z,11.03
2022-10-12T09:04:15.684Z,13.37
2022-10-12T09:06:57.847Z,12.30
2022-10-12T09:09:43.225Z,12.80
2022-10-12T09:12:42.948Z,15.00
2022-10-12T09:15:28.811Z,15.47
2022-10-12T09:17:59.947Z,12.13
2022-10-12T09:20:32.032Z,14.13
2022-10-12T09:23:16.017Z,12.67
2022-10-12T09:25:48.956Z,14.17
2022-10-12T09:28:27.914Z,14.03
2022-10-12T09:31:35.411Z,16.77
2022-10-12T09:34:06.490Z,14.53
2022-10-12T09:36:37.127Z,12.97
2022-10-12T09:39:20.184Z,13.50
2022-10-12T09:41:49.149Z,11.57
2022-10-12T09:44:26.853Z,17.77
2022-10-12T09:47:00.386Z,14.33
2022-10-12T09:49:53.236Z,21.80
2022-10-12T09:52:26.822Z,15.10
2022-10-12T09:55:02.550Z,15.93
2022-10-12T09:57:41.279Z,16.70
2022-10-12T10:00:33.732Z,10.88
2022-10-12T10:03:03.869Z,14.65
2022-10-12T10:05:36.702Z,13.10
2022-10-12T10:08:39.022Z,11.05
2022-10-12T10:11:15.849Z,15.27
2022-10-12T10:13:53.922Z,11.90
2022-10-12T10:16:24.547Z,14.00
2022-10-12T10:18:59.470Z,7.30
2022-10-12T10:21:34.466Z,11.02
2022-10-12T10:24:05.692Z,11.15
2022-10-12T10:26:55.044Z,16.67
2022-10-12T10:29:22.047Z,13.23
2022-10-12T10:32:23.717Z,10.23
2022-10-12T10:35:13.663Z,14.25
2022-10-12T10:37:55.762Z,15.70
2022-10-12T10:40:33.631Z,15.23
2022-10-12T10:43:07.003Z,14.05
2022-10-12T10:46:01.151Z,15.18
2022-10-12T10:48:52.941Z,15.97
2022-10-12T10:51:20.165Z,14.23
2022-10-12T10:53:49.655Z,17.73
2022-10-12T10:56:31.609Z,13.10
2022-10-12T10:59:09.704Z,9.17
2022-10-12T11:01:46.139Z,8.93
2022-10-12T11:04:44.736Z,10.90
2022-10-12T11:07:34.107Z,11.67
2022-10-12T11:10:09.384Z,9.20
2022-10-12T11:12:42.781Z,13.63
2022-10-12T11:15:24.032Z,12.80
2022-10-12T11:17:57.786Z,11.43
2022-10-12T11:20:34.354Z,12.00
2022-10-12T11:23:45.302Z,13.50
2022-10-12T11:26:38.026Z,14.90
2022-10-12T11:29:12.232Z,8.40
2022-10-12T11:32:12.010Z,9.07
2022-10-12T11:35:00.903Z,12.40
2022-10-12T11:37:45.147Z,9.40
2022-10-12T11:41:00.337Z,13.53
2022-10-12T11:43:36.159Z,15.57
2022-10-12T11:46:08.256Z,14.57
2022-10-12T11:49:00.447Z,10.33
2022-10-12T11:51:27.375Z,10.70
2022-10-12T11:54:01.476Z,9.70
2022-10-12T11:56:44.894Z,9.53
2022-10-12T11:59:39.257Z,7.23
2022-10-12T12:02:18.240Z,6.97
2022-10-12T12:04:47.224Z,7.47
2022-10-12T12:07:36.850Z,8.73
2022-10-12T12:10:34.938Z,9.20
2022-10-12T12:13:15.203Z,8.63
2022-10-12T12:15:49.682Z,10.03
2022-10-12T12:18:24.018Z,10.60
2022-10-12T12:21:01.985Z,11.40
2022-10-12T12:23:51.328Z,9.17
2022-10-12T12:26:22.615Z,10.10
2022-10-12T12:29:08.493Z,13.73
2022-10-12T12:31:35.599Z,15.80
2022-10-12T12:34:07.224Z,12.17
2022-10-12T12:36:40.905Z,10.53
2022-10-12T12:39:21.456Z,22.83
2022-10-12T12:42:01.613Z,10.83
2022-10-12T12:44:41.680Z,9.80
2022-10-12T12:47:43.342Z,12.77
2022-10-12T12:50:23.011Z,11.60
2022-10-12T12:52:58.056Z,9.40
2022-10-12T12:56:00.286Z,8.93
2022-10-12T12:58:45.254Z,15.33
2022-10-12T13:01:51.857Z,12.33
2022-10-12T13:04:55.421Z,12.87
2022-10-12T13:07:38.241Z,10.70
2022-10-12T13:10:09.980Z,10.17
2022-10-12T13:13:14.383Z,11.40
2022-10-12T13:15:53.400Z,12.03
2022-10-12T13:18:47.663Z,12.23
2022-10-12T13:21:38.886Z,10.73
2022-10-12T13:24:17.773Z,9.43
2022-10-12T13:26:55.408Z,6.57
2022-10-12T13:29:32.862Z,10.73
2022-10-12T13:32:06.251Z,11.93
2022-10-12T13:34:45.671Z,14.23
2022-10-12T13:37:16.988Z,11.67
2022-10-12T13:39:47.253Z,11.93
2022-10-12T13:42:22.110Z,10.50
2022-10-12T13:44:50.335Z,12.13
2022-10-12T13:47:23.197Z,11.93
2022-10-12T13:49:53.429Z,11.17
2022-10-12T13:52:32.437Z,13.90
2022-10-12T13:55:16.628Z,10.57
2022-10-12T13:57:50.485Z,11.77
2022-10-12T14:00:17.880Z,11.23
2022-10-12T14:02:59.798Z,10.13
2022-10-12T14:05:29.903Z,13.00
2022-10-12T14:08:02.040Z,13.10
2022-10-12T14:10:34.902Z,14.13
2022-10-12T14:13:05.969Z,9.17
2022-10-12T14:15:38.345Z,9.93
2022-10-12T14:18:44.137Z,11.80
2022-10-12T14:21:33.354Z,8.83
2022-10-12T14:24:09.587Z,9.57
2022-10-12T14:26:52.344Z,11.27
2022-10-12T14:29:46.431Z,12.30
2022-10-12T14:32:14.300Z,8.03
2022-10-12T14:34:45.264Z,8.23
2022-10-12T14:37:17.127Z,13.20
2022-10-12T14:39:46.493Z,12.67
2022-10-12T14:42:27.281Z,6.27
2022-10-12T14:44:54.602Z,8.93
2022-10-12T14:47:38.005Z,8.43
2022-10-12T14:50:08.694Z,8.00
2022-10-12T14:52:43.896Z,4.87
2022-10-12T14:55:24.417Z,7.07
2022-10-12T14:57:52.418Z,5.77
2022-10-12T15:00:33.964Z,6.93
2022-10-12T15:03:04.190Z,6.57
2022-10-12T15:05:32.707Z,7.70
2022-10-12T15:08:09.131Z,5.57
2022-10-12T15:10:37.413Z,6.67
2022-10-12T15:13:07.499Z,6.90
2022-10-12T15:15:47.727Z,5.93
2022-10-12T15:18:14.696Z,9.27
2022-10-12T15:20:49.167Z,6.63
2022-10-12T15:23:22.809Z,6.97
2022-10-12T15:25:59.892Z,6.40
2022-10-12T15:28:29.883Z,6.83
2022-10-12T15:31:16.844Z,8.17
2022-10-12T15:33:47.879Z,5.37
2022-10-12T15:36:14.934Z,10.77
2022-10-12T15:38:42.873Z,11.20
2022-10-12T15:41:17.539Z,5.67
2022-10-12T15:43:44.595Z,6.00
2022-10-12T15:46:12.425Z,5.87
2022-10-12T15:48:41.909Z,7.87
2022-10-12T15:51:23.192Z,8.27
2022-10-12T15:53:54.410Z,5.20
2022-10-12T15:56:23.407Z,8.23
2022-10-12T15:58:51.502Z,11.30
2022-10-12T16:01:20.460Z,6.53
2022-10-12T16:03:48.822Z,7.17
2022-10-12T16:06:21.896Z,7.83
2022-10-12T16:08:50.917Z,4.97
2022-10-12T16:11:19.439Z,8.67
2022-10-12T16:13:54.032Z,7.57
2022-10-12T16:16:22.690Z,9.90
2022-10-12T16:18:53.990Z,6.70
2022-10-12T16:21:21.353Z,12.83
2022-10-12T16:23:49.356Z,7.73
2022-10-12T16:26:17.392Z,5.87
2022-10-12T16:28:46.485Z,11.47
2022-10-12T16:31:17.964Z,7.60
2022-10-12T16:33:48.249Z,5.50
2022-10-12T16:36:17.456Z,9.63
2022-10-12T16:38:46.467Z,7.73
2022-10-12T16:41:16.659Z,18.53
2022-10-12T16:43:46.835Z,12.07
2022-10-12T16:46:16.869Z,16.20
2022-10-12T16:48:44.598Z,18.53
2022-10-12T16:51:13.147Z,14.73
2022-10-12T16:53:42.471Z,10.80
2022-10-12T16:56:10.036Z,17.30
2022-10-12T16:58:40.172Z,13.63
2022-10-12T17:01:12.259Z,9.43
2022-10-12T17:03:39.366Z,10.70
2022-10-12T17:06:12.434Z,7.47
2022-10-12T17:08:39.509Z,11.60
2022-10-12T17:11:13.535Z,7.00
2022-10-12T17:13:46.610Z,8.03
2022-10-12T17:16:47.680Z,13.87
2022-10-12T17:19:29.927Z,11.77
2022-10-12T17:21:59.556Z,11.77
2022-10-12T17:24:28.786Z,10.43
2022-10-12T17:26:56.667Z,9.63
2022-10-12T17:29:25.332Z,8.23
2022-10-12T17:31:53.933Z,9.43
2022-10-12T17:34:30.150Z,7.53
2022-10-12T17:37:01.671Z,10.47
2022-10-12T17:39:41.810Z,9.07
2022-10-12T17:42:09.595Z,10.90
2022-10-12T17:44:36.408Z,11.60
2022-10-12T17:47:04.337Z,9.30
2022-10-12T17:49:31.925Z,12.27
2022-10-12T17:51:58.772Z,16.17
2022-10-12T17:54:26.712Z,16.87
2022-10-12T17:56:55.628Z,14.20
2022-10-12T17:59:23.077Z,12.57
2022-10-12T18:01:51.192Z,15.43
2022-10-12T18:04:18.391Z,10.03
2022-10-12T18:06:45.893Z,11.17
2022-10-12T18:09:13.132Z,13.83
2022-10-12T18:11:41.258Z,10.40
2022-10-12T18:14:10.555Z,11.90
2022-10-12T18:16:38.016Z,13.03
2022-10-12T18:19:06.284Z,15.93
2022-10-12T18:21:34.162Z,15.83
2022-10-12T18:24:07.053Z,11.43
2022-10-12T18:26:35.024Z,15.60
2022-10-12T18:29:02.324Z,13.43
2022-10-12T18:31:30.011Z,11.47
2022-10-12T18:33:58.059Z,11.23
2022-10-12T18:36:26.353Z,15.33
2022-10-12T18:38:53.941Z,11.20
2022-10-12T18:41:22.602Z,11.33
2022-10-12T18:43:55.460Z,11.77
2022-10-12T18:46:22.357Z,14.30
2022-10-12T18:48:49.429Z,14.63
2022-10-12T18:51:31.959Z,19.03
2022-10-12T18:54:00.536Z,13.40
2022-10-12T18:56:30.228Z,14.57
2022-10-12T18:58:59.732Z,13.63
2022-10-12T19:01:28.203Z,17.10
2022-10-12T19:03:57.380Z,15.23
2022-10-12T19:06:27.422Z,12.37
2022-10-12T19:08:58.092Z,13.23
2022-10-12T19:11:27.097Z,13.03
2022-10-12T19:14:05.577Z,14.30
2022-10-12T19:16:32.619Z,11.43
2022-10-12T19:19:02.177Z,19.00
2022-10-12T19:21:29.716Z,14.10
2022-10-12T19:23:57.036Z,13.07
2022-10-12T19:26:27.432Z,12.70
2022-10-12T19:28:56.535Z,13.37
2022-10-12T19:31:30.199Z,15.90
2022-10-12T19:33:59.597Z,16.13
2022-10-12T19:36:28.465Z,16.10
2022-10-12T19:38:59.972Z,12.47
2022-10-12T19:41:28.619Z,13.73
2022-10-12T19:43:56.601Z,15.10
2022-10-12T19:46:23.999Z,13.27
2022-10-12T19:48:52.993Z,10.87
2022-10-12T19:51:21.504Z,10.30
2022-10-12T19:53:48.561Z,14.53
2022-10-12T19:56:18.825Z,15.60
2022-10-12T19:58:46.013Z,13.47
2022-10-12T20:01:15.876Z,11.80
2022-10-12T20:03:47.593Z,15.60
2022-10-12T20:06:15.393Z,10.47
2022-10-12T20:08:43.916Z,23.27
2022-10-12T20:11:17.668Z,12.00
2022-10-12T20:13:46.773Z,11.73
2022-10-12T20:16:15.094Z,9.37
2022-10-12T20:18:42.148Z,9.63
2022-10-12T20:21:10.614Z,9.37
2022-10-12T20:23:39.267Z,11.03
2022-10-12T20:26:08.587Z,11.43
2022-10-12T20:28:36.981Z,8.47
2022-10-12T20:31:05.738Z,7.87
2022-10-12T20:33:34.498Z,9.93
2022-10-12T20:36:01.717Z,9.57
2022-10-12T20:38:28.724Z,8.27
2022-10-12T20:41:06.959Z,8.47
2022-10-12T20:43:34.228Z,9.10
2022-10-12T20:46:05.838Z,9.17
2022-10-12T20:48:34.175Z,15.50
2022-10-12T20:51:04.694Z,9.77
2022-10-12T20:53:31.607Z,13.77
2022-10-12T20:55:58.434Z,9.60
2022-10-12T20:58:27.875Z,13.80
2022-10-12T21:01:09.564Z,9.53
2022-10-12T21:03:37.119Z,13.57
2022-10-12T21:06:07.091Z,8.63
2022-10-12T21:08:34.593Z,8.50
2022-10-12T21:11:02.136Z,11.33
2022-10-12T21:13:34.179Z,11.70
2022-10-12T21:16:01.264Z,16.57
2022-10-12T21:18:32.849Z,11.13
2022-10-12T21:21:17.004Z,11.13
2022-10-12T21:23:46.084Z,10.37
2022-10-12T21:26:16.671Z,9.10
2022-10-12T21:28:44.300Z,11.43
2022-10-12T21:31:12.197Z,8.53
2022-10-12T21:33:39.528Z,9.77
2022-10-12T21:36:07.988Z,9.33
2022-10-12T21:38:35.133Z,10.37
2022-10-12T21:41:02.131Z,13.07
2022-10-12T21:43:28.977Z,8.63
2022-10-12T21:46:05.231Z,13.20
2022-10-12T21:48:32.838Z,11.17
2022-10-12T21:51:00.871Z,9.03
2022-10-12T21:53:27.892Z,12.90
2022-10-12T21:55:54.809Z,11.37
2022-10-12T21:58:21.916Z,12.10
2022-10-12T22:00:48.973Z,11.60
2022-10-12T22:03:16.039Z,8.97
2022-10-12T22:05:44.452Z,9.33
2022-10-12T22:08:11.658Z,9.57
2022-10-12T22:10:39.813Z,10.50
2022-10-12T22:13:07.300Z,10.77
2022-10-12T22:15:35.521Z,10.43
2022-10-12T22:18:02.512Z,11.27
2022-10-12T22:20:29.361Z,9.50
2022-10-12T22:22:56.249Z,10.33
2022-10-12T22:25:23.101Z,11.43
2022-10-12T22:27:49.968Z,11.53
2022-10-12T22:30:16.916Z,12.07
2022-10-12T22:32:43.796Z,9.77
2022-10-12T22:35:10.640Z,9.37
2022-10-12T22:37:37.553Z,12.47
2022-10-12T22:40:05.156Z,11.43
2022-10-12T22:42:32.029Z,10.43
2022-10-12T22:44:58.900Z,12.67
2022-10-12T22:47:25.832Z,12.07
2022-10-12T22:49:52.697Z,10.77
2022-10-12T22:52:19.859Z,9.73
2022-10-12T22:54:47.138Z,15.60
2022-10-12T22:57:14.003Z,15.43
2022-10-12T22:59:40.880Z,15.77
2022-10-12T23:02:07.739Z,19.27
2022-10-12T23:04:34.635Z,11.20
2022-10-12T23:07:01.611Z,11.63
2022-10-12T23:09:28.493Z,11.00
2022-10-12T23:11:55.419Z,10.23
2022-10-12T23:14:22.345Z,11.87
2022-10-12T23:16:49.200Z,11.33
2022-10-12T23:19:16.064Z,10.83
2022-10-12T23:21:43.181Z,9.73
2022-10-12T23:24:10.424Z,10.93
2022-10-12T23:26:37.277Z,12.30
2022-10-12T23:29:04.240Z,10.13
2022-10-12T23:31:32.347Z,11.73
2022-10-12T23:34:01.506Z,13.20
2022-10-12T23:36:28.843Z,11.50
2022-10-12T23:38:56.197Z,14.53
2022-10-12T23:41:23.035Z,12.37
2022-10-12T23:43:49.980Z,12.73
2022-10-12T23:46:16.791Z,12.43
2022-10-12T23:48:43.680Z,14.97
2022-10-12T23:51:11.387Z,12.87
2022-10-12T23:53:39.101Z,15.43
2022-10-12T23:56:06.750Z,12.80
2022-10-12T23:58:34.204Z,13.47
